sensor_id;sensor_type;location;lat;lon;timestamp;pressure;altitude;pressure_sealevel;temperature;humidity
7918;BME280;4004;42.624;23.386;2023-02-12T00:01:20;95055.34;;;0.61;46.28
7918;BME280;4004;42.624;23.386;2023-02-12T00:03:47;95043.69;;;0.62;46.24
7918;BME280;4004;42.624;23.386;2023-02-12T00:06:14;95040.47;;;0.75;46.56
7918;BME280;4004;42.624;23.386;2023-02-12T00:08:42;95050.03;;;0.71;46.23
7918;BME280;4004;42.624;23.386;2023-02-12T00:11:11;95042.88;;;0.67;46.91
7918;BME280;4004;42.624;23.386;2023-02-12T00:13:38;95028.34;;;0.64;47.14
7918;BME280;4004;42.624;23.386;2023-02-12T00:16:06;95054.81;;;0.64;45.75
7918;BME280;4004;42.624;23.386;2023-02-12T00:18:33;95048.69;;;0.69;46.02
7918;BME280;4004;42.624;23.386;2023-02-12T00:21:00;95051.63;;;0.72;45.55
7918;BME280;4004;42.624;23.386;2023-02-12T00:23:27;95053.75;;;0.65;45.40
7918;BME280;4004;42.624;23.386;2023-02-12T00:25:56;95048.47;;;0.60;45.97
7918;BME280;4004;42.624;23.386;2023-02-12T00:28:22;95043.41;;;0.69;45.57
7918;BME280;4004;42.624;23.386;2023-02-12T00:30:49;95046.28;;;0.77;45.35
7918;BME280;4004;42.624;23.386;2023-02-12T00:33:16;95049.53;;;0.69;45.62
7918;BME280;4004;42.624;23.386;2023-02-12T00:35:42;95048.97;;;0.72;44.89
7918;BME280;4004;42.624;23.386;2023-02-12T00:38:09;95043.44;;;0.64;44.92
7918;BME280;4004;42.624;23.386;2023-02-12T00:40:36;95046.59;;;0.66;45.49
7918;BME280;4004;42.624;23.386;2023-02-12T00:43:04;95028.59;;;0.68;44.95
7918;BME280;4004;42.624;23.386;2023-02-12T00:45:31;95032.28;;;0.67;45.37
7918;BME280;4004;42.624;23.386;2023-02-12T00:47:58;95025.16;;;0.67;45.33
7918;BME280;4004;42.624;23.386;2023-02-12T00:50:24;95023.53;;;0.76;44.96
7918;BME280;4004;42.624;23.386;2023-02-12T00:52:51;95020.91;;;0.76;46.07
7918;BME280;4004;42.624;23.386;2023-02-12T00:55:18;95018.28;;;0.71;46.22
7918;BME280;4004;42.624;23.386;2023-02-12T00:57:45;95015.59;;;0.76;45.16
7918;BME280;4004;42.624;23.386;2023-02-12T01:00:14;95024.63;;;0.70;45.61
7918;BME280;4004;42.624;23.386;2023-02-12T01:02:41;95006.63;;;0.72;45.55
7918;BME280;4004;42.624;23.386;2023-02-12T01:05:08;94985.50;;;0.57;45.47
7918;BME280;4004;42.624;23.386;2023-02-12T01:07:35;94999.16;;;0.79;45.58
7918;BME280;4004;42.624;23.386;2023-02-12T01:10:04;94994.16;;;0.78;45.42
7918;BME280;4004;42.624;23.386;2023-02-12T01:12:31;94985.47;;;0.67;45.49
7918;BME280;4004;42.624;23.386;2023-02-12T01:14:58;94989.94;;;0.67;45.67
7918;BME280;4004;42.624;23.386;2023-02-12T01:17:26;95009.53;;;0.76;44.92
7918;BME280;4004;42.624;23.386;2023-02-12T01:19:56;94991.22;;;0.79;45.34
7918;BME280;4004;42.624;23.386;2023-02-12T01:22:23;95009.75;;;0.79;45.09
7918;BME280;4004;42.624;23.386;2023-02-12T01:24:50;95020.88;;;0.81;45.77
7918;BME280;4004;42.624;23.386;2023-02-12T01:27:16;95018.19;;;0.92;45.49
7918;BME280;4004;42.624;23.386;2023-02-12T01:29:43;95022.38;;;1.03;45.50
7918;BME280;4004;42.624;23.386;2023-02-12T01:32:10;95007.56;;;0.97;45.67
7918;BME280;4004;42.624;23.386;2023-02-12T01:34:38;95016.53;;;1.11;45.57
7918;BME280;4004;42.624;23.386;2023-02-12T01:37:05;94995.03;;;1.13;45.28
7918;BME280;4004;42.624;23.386;2023-02-12T01:39:32;95008.06;;;1.09;44.76
7918;BME280;4004;42.624;23.386;2023-02-12T01:41:58;94984.44;;;1.13;45.33
7918;BME280;4004;42.624;23.386;2023-02-12T01:44:28;94986.88;;;1.09;45.77
7918;BME280;4004;42.624;23.386;2023-02-12T01:46:58;94987.16;;;1.02;46.68
7918;BME280;4004;42.624;23.386;2023-02-12T01:49:29;94979.19;;;1.08;45.73
7918;BME280;4004;42.624;23.386;2023-02-12T01:52:02;94985.22;;;1.18;45.91
7918;BME280;4004;42.624;23.386;2023-02-12T01:54:30;94973.53;;;1.19;45.78
7918;BME280;4004;42.624;23.386;2023-02-12T01:56:59;94967.78;;;1.12;45.52
7918;BME280;4004;42.624;23.386;2023-02-12T01:59:26;94959.56;;;1.09;45.47
7918;BME280;4004;42.624;23.386;2023-02-12T02:01:54;94965.69;;;1.09;46.45
7918;BME280;4004;42.624;23.386;2023-02-12T02:04:23;94968.13;;;1.00;45.87
7918;BME280;4004;42.624;23.386;2023-02-12T02:06:53;94970.97;;;1.04;45.91
7918;BME280;4004;42.624;23.386;2023-02-12T02:09:23;94984.44;;;1.18;45.85
7918;BME280;4004;42.624;23.386;2023-02-12T02:11:51;94979.63;;;1.20;46.21
7918;BME280;4004;42.624;23.386;2023-02-12T02:14:35;94975.69;;;1.17;46.91
7918;BME280;4004;42.624;23.386;2023-02-12T02:17:27;94971.47;;;1.16;46.26
7918;BME280;4004;42.624;23.386;2023-02-12T02:23:31;94981.06;;;1.02;46.58
7918;BME280;4004;42.624;23.386;2023-02-12T02:29:14;94963.13;;;0.89;47.39
7918;BME280;4004;42.624;23.386;2023-02-12T02:31:50;94962.59;;;0.92;47.11
7918;BME280;4004;42.624;23.386;2023-02-12T02:34:27;94967.91;;;0.87;47.77
7918;BME280;4004;42.624;23.386;2023-02-12T02:37:03;94973.19;;;0.87;47.40
7918;BME280;4004;42.624;23.386;2023-02-12T02:39:36;94965.03;;;0.83;47.57
7918;BME280;4004;42.624;23.386;2023-02-12T02:42:10;94971.06;;;0.89;48.05
7918;BME280;4004;42.624;23.386;2023-02-12T02:44:43;94957.13;;;0.78;48.48
7918;BME280;4004;42.624;23.386;2023-02-12T02:47:16;94950.22;;;0.77;48.51
7918;BME280;4004;42.624;23.386;2023-02-12T02:49:49;94970.09;;;0.74;48.67
7918;BME280;4004;42.624;23.386;2023-02-12T02:52:25;94971.09;;;0.83;48.58
7918;BME280;4004;42.624;23.386;2023-02-12T02:54:57;94985.88;;;0.95;48.85
7918;BME280;4004;42.624;23.386;2023-02-12T02:57:29;94974.75;;;0.98;49.06
7918;BME280;4004;42.624;23.386;2023-02-12T03:00:03;94985.81;;;1.05;49.18
7918;BME280;4004;42.624;23.386;2023-02-12T03:02:36;94994.50;;;1.11;49.24
7918;BME280;4004;42.624;23.386;2023-02-12T03:05:09;94983.91;;;1.16;49.14
7918;BME280;4004;42.624;23.386;2023-02-12T03:07:40;94993.69;;;1.15;49.82
7918;BME280;4004;42.624;23.386;2023-02-12T03:10:12;94988.16;;;1.12;49.64
7918;BME280;4004;42.624;23.386;2023-02-12T03:12:45;94977.06;;;1.10;49.43
7918;BME280;4004;42.624;23.386;2023-02-12T03:15:19;94981.00;;;1.12;49.38
7918;BME280;4004;42.624;23.386;2023-02-12T03:17:49;94988.97;;;1.12;49.15
7918;BME280;4004;42.624;23.386;2023-02-12T03:20:18;94988.91;;;1.17;49.18
7918;BME280;4004;42.624;23.386;2023-02-12T03:22:50;94992.09;;;1.19;49.56
7918;BME280;4004;42.624;23.386;2023-02-12T03:25:21;94985.19;;;1.23;50.13
7918;BME280;4004;42.624;23.386;2023-02-12T03:27:55;94989.91;;;1.27;49.45
7918;BME280;4004;42.624;23.386;2023-02-12T03:30:30;94992.59;;;1.21;49.74
7918;BME280;4004;42.624;23.386;2023-02-12T03:33:11;94982.78;;;1.22;49.46
7918;BME280;4004;42.624;23.386;2023-02-12T03:35:50;94981.22;;;1.21;50.92
7918;BME280;4004;42.624;23.386;2023-02-12T03:38:34;94984.63;;;1.27;49.66
7918;BME280;4004;42.624;23.386;2023-02-12T03:41:04;94983.59;;;1.22;50.19
7918;BME280;4004;42.624;23.386;2023-02-12T03:43:41;94980.16;;;1.22;50.52
7918;BME280;4004;42.624;23.386;2023-02-12T03:46:18;94980.44;;;1.20;50.55
7918;BME280;4004;42.624;23.386;2023-02-12T03:48:55;94976.22;;;1.14;50.76
7918;BME280;4004;42.624;23.386;2023-02-12T03:51:28;94980.75;;;1.09;51.17
7918;BME280;4004;42.624;23.386;2023-02-12T03:53:57;94980.56;;;0.95;50.68
7918;BME280;4004;42.624;23.386;2023-02-12T03:56:26;94974.22;;;0.96;51.29
7918;BME280;4004;42.624;23.386;2023-02-12T03:58:55;94978.19;;;0.93;51.42
7918;BME280;4004;42.624;23.386;2023-02-12T04:01:21;94981.16;;;0.81;51.58
7918;BME280;4004;42.624;23.386;2023-02-12T04:03:49;94978.81;;;0.75;52.34
7918;BME280;4004;42.624;23.386;2023-02-12T04:06:20;94969.06;;;0.65;52.14
7918;BME280;4004;42.624;23.386;2023-02-12T04:08:47;94969.06;;;0.65;52.50
7918;BME280;4004;42.624;23.386;2023-02-12T04:11:21;94976.53;;;0.58;52.89
7918;BME280;4004;42.624;23.386;2023-02-12T04:14:03;94983.38;;;0.59;53.43
7918;BME280;4004;42.624;23.386;2023-02-12T04:16:40;94975.19;;;0.55;53.48
7918;BME280;4004;42.624;23.386;2023-02-12T04:19:12;94983.13;;;0.60;54.07
7918;BME280;4004;42.624;23.386;2023-02-12T04:21:51;94984.44;;;0.63;53.80
7918;BME280;4004;42.624;23.386;2023-02-12T04:24:27;94984.88;;;0.75;53.37
7918;BME280;4004;42.624;23.386;2023-02-12T04:27:02;94985.41;;;0.82;53.58
7918;BME280;4004;42.624;23.386;2023-02-12T04:29:38;94998.13;;;0.80;53.64
7918;BME280;4004;42.624;23.386;2023-02-12T04:32:11;94999.22;;;0.69;54.48
7918;BME280;4004;42.624;23.386;2023-02-12T04:34:44;94991.59;;;0.57;55.29
7918;BME280;4004;42.624;23.386;2023-02-12T04:37:17;94999.31;;;0.33;56.96
7918;BME280;4004;42.624;23.386;2023-02-12T04:39:45;95002.03;;;0.18;57.95
7918;BME280;4004;42.624;23.386;2023-02-12T04:42:13;94999.94;;;-0.16;59.78
7918;BME280;4004;42.624;23.386;2023-02-12T04:44:42;95004.69;;;-0.18;61.28
7918;BME280;4004;42.624;23.386;2023-02-12T04:47:10;95009.47;;;-0.20;61.64
7918;BME280;4004;42.624;23.386;2023-02-12T04:49:37;95002.84;;;-0.28;61.67
7918;BME280;4004;42.624;23.386;2023-02-12T04:52:05;95016.88;;;-0.22;62.30
7918;BME280;4004;42.624;23.386;2023-02-12T04:54:33;95014.22;;;-0.22;63.17
7918;BME280;4004;42.624;23.386;2023-02-12T04:57:00;95017.13;;;-0.13;63.69
7918;BME280;4004;42.624;23.386;2023-02-12T04:59:26;95009.97;;;-0.03;63.51
7918;BME280;4004;42.624;23.386;2023-02-12T05:01:53;95016.03;;;0.08;63.04
7918;BME280;4004;42.624;23.386;2023-02-12T05:04:20;95009.97;;;0.08;62.01
7918;BME280;4004;42.624;23.386;2023-02-12T05:06:46;95009.16;;;0.12;62.44
7918;BME280;4004;42.624;23.386;2023-02-12T05:09:17;95011.78;;;0.17;62.25
7918;BME280;4004;42.624;23.386;2023-02-12T05:11:44;95010.19;;;0.22;62.82
7918;BME280;4004;42.624;23.386;2023-02-12T05:14:11;95015.75;;;0.25;62.37
7918;BME280;4004;42.624;23.386;2023-02-12T05:16:38;95006.22;;;0.29;61.39
7918;BME280;4004;42.624;23.386;2023-02-12T05:19:04;95010.97;;;0.22;60.27
7918;BME280;4004;42.624;23.386;2023-02-12T05:21:33;95010.75;;;0.08;60.21
7918;BME280;4004;42.624;23.386;2023-02-12T05:24:00;95015.25;;;0.08;60.37
7918;BME280;4004;42.624;23.386;2023-02-12T05:26:29;95027.66;;;0.17;58.93
7918;BME280;4004;42.624;23.386;2023-02-12T05:28:56;95029.22;;;0.24;58.69
7918;BME280;4004;42.624;23.386;2023-02-12T05:31:22;95035.59;;;0.28;57.14
7918;BME280;4004;42.624;23.386;2023-02-12T05:33:49;95024.94;;;0.48;57.36
7918;BME280;4004;42.624;23.386;2023-02-12T05:36:17;95028.09;;;0.55;58.28
7918;BME280;4004;42.624;23.386;2023-02-12T05:38:45;95025.16;;;0.62;61.63
7918;BME280;4004;42.624;23.386;2023-02-12T05:41:13;95033.94;;;0.63;62.35
7918;BME280;4004;42.624;23.386;2023-02-12T05:43:42;95034.97;;;0.61;61.54
7918;BME280;4004;42.624;23.386;2023-02-12T05:46:10;95036.81;;;0.66;61.35
7918;BME280;4004;42.624;23.386;2023-02-12T05:48:38;95036.22;;;0.79;61.15
7918;BME280;4004;42.624;23.386;2023-02-12T05:51:06;95037.84;;;0.80;60.45
7918;BME280;4004;42.624;23.386;2023-02-12T05:53:34;95033.06;;;0.77;61.10
7918;BME280;4004;42.624;23.386;2023-02-12T05:56:09;95038.38;;;0.72;61.74
7918;BME280;4004;42.624;23.386;2023-02-12T05:58:36;95034.69;;;0.68;62.01
7918;BME280;4004;42.624;23.386;2023-02-12T06:01:09;95042.88;;;0.77;62.66
7918;BME280;4004;42.624;23.386;2023-02-12T06:03:36;95044.47;;;0.68;63.75
7918;BME280;4004;42.624;23.386;2023-02-12T06:06:03;95037.31;;;0.73;64.74
7918;BME280;4004;42.624;23.386;2023-02-12T06:08:30;95042.06;;;0.76;65.48
7918;BME280;4004;42.624;23.386;2023-02-12T06:10:59;95040.50;;;0.70;66.13
7918;BME280;4004;42.624;23.386;2023-02-12T06:13:26;95044.78;;;0.61;68.46
7918;BME280;4004;42.624;23.386;2023-02-12T06:15:53;95051.09;;;0.70;69.69
7918;BME280;4004;42.624;23.386;2023-02-12T06:18:21;95043.16;;;0.65;70.99
7918;BME280;4004;42.624;23.386;2023-02-12T06:20:48;95050.31;;;0.65;72.08
7918;BME280;4004;42.624;23.386;2023-02-12T06:23:15;95049.53;;;0.59;73.67
7918;BME280;4004;42.624;23.386;2023-02-12T06:25:41;95041.59;;;0.59;74.40
7918;BME280;4004;42.624;23.386;2023-02-12T06:28:08;95050.81;;;0.67;74.42
7918;BME280;4004;42.624;23.386;2023-02-12T06:30:35;95046.31;;;0.72;75.27
7918;BME280;4004;42.624;23.386;2023-02-12T06:33:01;95035.72;;;0.72;76.58
7918;BME280;4004;42.624;23.386;2023-02-12T06:35:30;95055.03;;;0.73;75.75
7918;BME280;4004;42.624;23.386;2023-02-12T06:37:56;95058.75;;;0.67;76.94
7918;BME280;4004;42.624;23.386;2023-02-12T06:40:23;95051.91;;;0.66;77.67
7918;BME280;4004;42.624;23.386;2023-02-12T06:42:50;95063.03;;;0.63;81.02
7918;BME280;4004;42.624;23.386;2023-02-12T06:45:16;95055.34;;;0.61;84.01
7918;BME280;4004;42.624;23.386;2023-02-12T06:47:43;95053.47;;;0.67;84.31
7918;BME280;4004;42.624;23.386;2023-02-12T06:50:10;95055.84;;;0.68;84.03
7918;BME280;4004;42.624;23.386;2023-02-12T06:52:38;95060.34;;;0.73;83.86
7918;BME280;4004;42.624;23.386;2023-02-12T06:55:05;95070.19;;;0.57;85.19
7918;BME280;4004;42.624;23.386;2023-02-12T06:57:32;95067.53;;;0.57;85.75
7918;BME280;4004;42.624;23.386;2023-02-12T06:59:59;95074.66;;;0.61;85.52
7918;BME280;4004;42.624;23.386;2023-02-12T07:02:26;95080.47;;;0.64;85.25
7918;BME280;4004;42.624;23.386;2023-02-12T07:04:52;95085.50;;;0.70;85.06
7918;BME280;4004;42.624;23.386;2023-02-12T07:07:19;95081.00;;;0.76;84.73
7918;BME280;4004;42.624;23.386;2023-02-12T07:09:47;95078.38;;;0.66;83.96
7918;BME280;4004;42.624;23.386;2023-02-12T07:12:14;95072.81;;;0.62;84.70
7918;BME280;4004;42.624;23.386;2023-02-12T07:14:41;95070.16;;;0.62;84.25
7918;BME280;4004;42.624;23.386;2023-02-12T07:17:07;95082.84;;;0.70;84.67
7918;BME280;4004;42.624;23.386;2023-02-12T07:19:34;95077.28;;;0.67;84.26
7918;BME280;4004;42.624;23.386;2023-02-12T07:22:01;95073.56;;;0.73;83.46
7918;BME280;4004;42.624;23.386;2023-02-12T07:24:28;95071.72;;;0.68;83.64
7918;BME280;4004;42.624;23.386;2023-02-12T07:26:56;95078.09;;;0.72;83.63
7918;BME280;4004;42.624;23.386;2023-02-12T07:29:23;95083.38;;;0.72;83.60
7918;BME280;4004;42.624;23.386;2023-02-12T07:31:50;95089.69;;;0.87;83.61
7918;BME280;4004;42.624;23.386;2023-02-12T07:34:16;95076.44;;;0.92;83.97
7918;BME280;4004;42.624;23.386;2023-02-12T07:36:43;95085.44;;;0.96;84.01
7918;BME280;4004;42.624;23.386;2023-02-12T07:39:10;95090.69;;;1.01;83.66
7918;BME280;4004;42.624;23.386;2023-02-12T07:41:37;95091.19;;;1.08;83.51
7918;BME280;4004;42.624;23.386;2023-02-12T07:44:06;95089.06;;;1.10;82.69
7918;BME280;4004;42.624;23.386;2023-02-12T07:46:37;95098.63;;;1.06;83.08
7918;BME280;4004;42.624;23.386;2023-02-12T07:49:05;95093.63;;;0.94;83.44
7918;BME280;4004;42.624;23.386;2023-02-12T07:51:35;95097.59;;;0.97;84.02
7918;BME280;4004;42.624;23.386;2023-02-12T07:54:02;95102.06;;;1.01;84.51
7918;BME280;4004;42.624;23.386;2023-02-12T07:56:31;95101.56;;;1.05;84.71
7918;BME280;4004;42.624;23.386;2023-02-12T07:59:01;95095.22;;;1.00;84.74
7918;BME280;4004;42.624;23.386;2023-02-12T08:01:30;95092.31;;;0.97;85.30
7918;BME280;4004;42.624;23.386;2023-02-12T08:03:59;95093.38;;;0.96;86.32
7918;BME280;4004;42.624;23.386;2023-02-12T08:06:28;95105.56;;;0.92;86.63
7918;BME280;4004;42.624;23.386;2023-02-12T08:08:56;95110.06;;;0.86;87.28
7918;BME280;4004;42.624;23.386;2023-02-12T08:11:24;95114.03;;;0.94;87.99
7918;BME280;4004;42.624;23.386;2023-02-12T08:13:52;95105.00;;;0.95;87.76
7918;BME280;4004;42.624;23.386;2023-02-12T08:16:21;95110.84;;;0.97;87.38
7918;BME280;4004;42.624;23.386;2023-02-12T08:18:50;95110.84;;;0.97;86.89
7918;BME280;4004;42.624;23.386;2023-02-12T08:21:19;95110.34;;;0.85;89.21
7918;BME280;4004;42.624;23.386;2023-02-12T08:23:47;95108.22;;;0.92;89.02
7918;BME280;4004;42.624;23.386;2023-02-12T08:26:16;95111.66;;;0.87;89.21
7918;BME280;4004;42.624;23.386;2023-02-12T08:28:45;95116.69;;;0.94;89.17
7918;BME280;4004;42.624;23.386;2023-02-12T08:31:15;95125.38;;;1.05;88.82
7918;BME280;4004;42.624;23.386;2023-02-12T08:33:43;95124.09;;;0.92;88.65
7918;BME280;4004;42.624;23.386;2023-02-12T08:36:12;95138.09;;;1.02;88.97
7918;BME280;4004;42.624;23.386;2023-02-12T08:38:41;95128.28;;;1.08;88.54
7918;BME280;4004;42.624;23.386;2023-02-12T08:41:10;95135.44;;;1.08;88.13
7918;BME280;4004;42.624;23.386;2023-02-12T08:43:38;95143.09;;;1.14;88.14
7918;BME280;4004;42.624;23.386;2023-02-12T08:46:06;95147.84;;;1.17;88.27
7918;BME280;4004;42.624;23.386;2023-02-12T08:48:34;95148.06;;;1.26;88.16
7918;BME280;4004;42.624;23.386;2023-02-12T08:51:06;95155.72;;;1.38;87.53
7918;BME280;4004;42.624;23.386;2023-02-12T08:53:34;95158.31;;;1.48;86.71
7918;BME280;4004;42.624;23.386;2023-02-12T08:56:02;95158.34;;;1.43;87.03
7918;BME280;4004;42.624;23.386;2023-02-12T08:58:29;95154.69;;;1.34;87.87
7918;BME280;4004;42.624;23.386;2023-02-12T09:00:55;95171.34;;;1.39;87.24
7918;BME280;4004;42.624;23.386;2023-02-12T09:03:23;95166.84;;;1.35;87.79
7918;BME280;4004;42.624;23.386;2023-02-12T09:05:50;95158.66;;;1.36;87.43
7918;BME280;4004;42.624;23.386;2023-02-12T09:08:16;95168.16;;;1.37;86.90
7918;BME280;4004;42.624;23.386;2023-02-12T09:10:44;95169.47;;;1.40;86.85
7918;BME280;4004;42.624;23.386;2023-02-12T09:13:12;95163.16;;;1.36;87.58
7918;BME280;4004;42.624;23.386;2023-02-12T09:15:41;95181.19;;;1.23;88.45
7918;BME280;4004;42.624;23.386;2023-02-12T09:18:09;95173.75;;;1.31;88.42
7918;BME280;4004;42.624;23.386;2023-02-12T09:20:37;95171.91;;;1.26;88.91
7918;BME280;4004;42.624;23.386;2023-02-12T09:23:05;95181.47;;;1.27;89.14
7918;BME280;4004;42.624;23.386;2023-02-12T09:25:32;95169.28;;;1.31;89.01
7918;BME280;4004;42.624;23.386;2023-02-12T09:28:01;95186.25;;;1.25;89.06
7918;BME280;4004;42.624;23.386;2023-02-12T09:30:28;95182.00;;;1.19;90.71
7918;BME280;4004;42.624;23.386;2023-02-12T09:32:54;95178.06;;;1.11;91.01
7918;BME280;4004;42.624;23.386;2023-02-12T09:35:21;95167.47;;;1.16;91.50
7918;BME280;4004;42.624;23.386;2023-02-12T09:37:48;95178.56;;;1.23;91.05
7918;BME280;4004;42.624;23.386;2023-02-12T09:40:17;95171.09;;;1.31;91.10
7918;BME280;4004;42.624;23.386;2023-02-12T09:42:56;95171.56;;;1.48;90.36
7918;BME280;4004;42.624;23.386;2023-02-12T09:45:32;95174.22;;;1.48;89.78
7918;BME280;4004;42.624;23.386;2023-02-12T09:48:12;95175.28;;;1.52;89.35
7918;BME280;4004;42.624;23.386;2023-02-12T09:50:48;95180.00;;;1.65;89.01
7918;BME280;4004;42.624;23.386;2023-02-12T09:53:19;95171.47;;;1.74;88.17
7918;BME280;4004;42.624;23.386;2023-02-12T09:55:46;95183.63;;;1.85;87.52
7918;BME280;4004;42.624;23.386;2023-02-12T09:58:15;95183.69;;;1.64;88.46
7918;BME280;4004;42.624;23.386;2023-02-12T10:00:46;95191.91;;;1.68;88.87
7918;BME280;4004;42.624;23.386;2023-02-12T10:03:15;95168.75;;;1.89;88.02
7918;BME280;4004;42.624;23.386;2023-02-12T10:05:48;95173.50;;;1.92;86.76
7918;BME280;4004;42.624;23.386;2023-02-12T10:08:42;95175.00;;;2.03;86.14
7918;BME280;4004;42.624;23.386;2023-02-12T10:14:37;95184.22;;;2.16;85.26
7918;BME280;4004;42.624;23.386;2023-02-12T10:17:18;95183.88;;;2.28;84.62
7918;BME280;4004;42.624;23.386;2023-02-12T10:20:04;95188.09;;;2.34;83.36
7918;BME280;4004;42.624;23.386;2023-02-12T10:22:42;95184.91;;;2.32;83.34
7918;BME280;4004;42.624;23.386;2023-02-12T10:25:19;95189.19;;;2.28;83.37
7918;BME280;4004;42.624;23.386;2023-02-12T10:27:51;95194.53;;;2.23;83.81
7918;BME280;4004;42.624;23.386;2023-02-12T10:30:21;95199.09;;;2.12;84.55
7918;BME280;4004;42.624;23.386;2023-02-12T10:32:55;95206.06;;;2.03;84.96
7918;BME280;4004;42.624;23.386;2023-02-12T10:35:24;95201.50;;;2.08;84.35
7918;BME280;4004;42.624;23.386;2023-02-12T10:37:56;95198.00;;;2.18;84.10
7918;BME280;4004;42.624;23.386;2023-02-12T10:40:27;95199.84;;;2.23;84.91
7918;BME280;4004;42.624;23.386;2023-02-12T10:42:57;95200.88;;;2.27;84.72
7918;BME280;4004;42.624;23.386;2023-02-12T10:45:29;95203.44;;;2.42;85.23
7918;BME280;4004;42.624;23.386;2023-02-12T10:48:04;95206.75;;;2.58;84.55
7918;BME280;4004;42.624;23.386;2023-02-12T10:50:40;95209.69;;;2.57;83.28
7918;BME280;4004;42.624;23.386;2023-02-12T10:53:17;95203.38;;;2.47;83.67
7918;BME280;4004;42.624;23.386;2023-02-12T10:55:44;95208.84;;;2.61;84.03
7918;BME280;4004;42.624;23.386;2023-02-12T10:58:20;95208.00;;;2.66;82.61
7918;BME280;4004;42.624;23.386;2023-02-12T11:00:55;95202.63;;;2.76;81.96
7918;BME280;4004;42.624;23.386;2023-02-12T11:03:27;95201.72;;;2.86;82.09
7918;BME280;4004;42.624;23.386;2023-02-12T11:06:11;95203.28;;;2.92;80.82
7918;BME280;4004;42.624;23.386;2023-02-12T11:08:38;95195.78;;;2.99;80.11
7918;BME280;4004;42.624;23.386;2023-02-12T11:11:09;95194.19;;;2.98;81.00
7918;BME280;4004;42.624;23.386;2023-02-12T11:13:38;95196.97;;;3.12;80.03
7918;BME280;4004;42.624;23.386;2023-02-12T11:16:05;95194.78;;;3.19;79.86
7918;BME280;4004;42.624;23.386;2023-02-12T11:18:34;95197.50;;;3.14;79.92
7918;BME280;4004;42.624;23.386;2023-02-12T11:21:03;95208.84;;;3.20;79.31
7918;BME280;4004;42.624;23.386;2023-02-12T11:23:33;95211.59;;;3.39;79.71
7918;BME280;4004;42.624;23.386;2023-02-12T11:26:03;95205.44;;;3.67;77.48
7918;BME280;4004;42.624;23.386;2023-02-12T11:28:31;95198.06;;;3.59;76.50
7918;BME280;4004;42.624;23.386;2023-02-12T11:31:19;95188.78;;;3.57;76.15
7918;BME280;4004;42.624;23.386;2023-02-12T11:34:06;95181.00;;;3.41;76.78
7918;BME280;4004;42.624;23.386;2023-02-12T11:36:35;95195.25;;;3.50;76.80
7918;BME280;4004;42.624;23.386;2023-02-12T11:39:03;95186.75;;;3.48;76.48
7918;BME280;4004;42.624;23.386;2023-02-12T11:41:34;95194.44;;;3.74;76.31
7918;BME280;4004;42.624;23.386;2023-02-12T11:44:07;95196.06;;;3.94;75.72
7918;BME280;4004;42.624;23.386;2023-02-12T11:46:35;95196.56;;;4.15;74.41
7918;BME280;4004;42.624;23.386;2023-02-12T11:49:04;95191.09;;;4.25;74.25
7918;BME280;4004;42.624;23.386;2023-02-12T11:51:35;95196.63;;;4.10;73.25
7918;BME280;4004;42.624;23.386;2023-02-12T11:54:03;95196.75;;;4.00;74.90
7918;BME280;4004;42.624;23.386;2023-02-12T11:56:42;95205.16;;;4.07;73.99
7918;BME280;4004;42.624;23.386;2023-02-12T11:59:20;95203.91;;;4.23;73.79
7918;BME280;4004;42.624;23.386;2023-02-12T12:01:50;95201.88;;;4.34;73.17
7918;BME280;4004;42.624;23.386;2023-02-12T12:04:23;95199.00;;;4.30;72.60
7918;BME280;4004;42.624;23.386;2023-02-12T12:06:55;95199.94;;;4.21;73.73
7918;BME280;4004;42.624;23.386;2023-02-12T12:09:29;95201.81;;;4.39;72.10
7918;BME280;4004;42.624;23.386;2023-02-12T12:12:05;95207.13;;;4.39;71.84
7918;BME280;4004;42.624;23.386;2023-02-12T12:14:38;95203.09;;;4.42;71.41
7918;BME280;4004;42.624;23.386;2023-02-12T12:17:24;95209.84;;;4.53;70.04
7918;BME280;4004;42.624;23.386;2023-02-12T12:20:22;95217.47;;;4.60;70.22
7918;BME280;4004;42.624;23.386;2023-02-12T12:22:53;95205.72;;;4.80;69.08
7918;BME280;4004;42.624;23.386;2023-02-12T12:25:26;95212.53;;;4.86;68.21
7918;BME280;4004;42.624;23.386;2023-02-12T12:27:59;95219.88;;;4.94;67.88
7918;BME280;4004;42.624;23.386;2023-02-12T12:30:51;95215.63;;;4.93;66.28
7918;BME280;4004;42.624;23.386;2023-02-12T12:33:31;95207.06;;;4.96;66.86
7918;BME280;4004;42.624;23.386;2023-02-12T12:36:26;95220.94;;;4.93;66.22
7918;BME280;4004;42.624;23.386;2023-02-12T12:39:00;95233.13;;;4.99;65.82
7918;BME280;4004;42.624;23.386;2023-02-12T12:41:39;95230.59;;;4.89;66.32
7918;BME280;4004;42.624;23.386;2023-02-12T12:44:25;95234.31;;;4.74;67.20
7918;BME280;4004;42.624;23.386;2023-02-12T12:47:16;95233.09;;;4.66;67.39
7918;BME280;4004;42.624;23.386;2023-02-12T12:49:55;95228.63;;;4.62;67.44
7918;BME280;4004;42.624;23.386;2023-02-12T12:52:48;95237.63;;;4.47;68.17
7918;BME280;4004;42.624;23.386;2023-02-12T12:55:39;95231.03;;;4.25;69.24
7918;BME280;4004;42.624;23.386;2023-02-12T12:58:15;95242.88;;;4.33;69.95
7918;BME280;4004;42.624;23.386;2023-02-12T13:00:53;95233.63;;;4.30;69.67
7918;BME280;4004;42.624;23.386;2023-02-12T13:03:41;95235.47;;;4.11;70.55
7918;BME280;4004;42.624;23.386;2023-02-12T13:09:16;95243.28;;;4.02;71.46
7918;BME280;4004;42.624;23.386;2023-02-12T13:11:57;95240.59;;;4.07;72.06
7918;BME280;4004;42.624;23.386;2023-02-12T13:14:35;95240.25;;;3.90;71.94
7918;BME280;4004;42.624;23.386;2023-02-12T13:17:08;95247.13;;;3.96;72.17
7918;BME280;4004;42.624;23.386;2023-02-12T13:19:47;95249.78;;;3.96;72.79
7918;BME280;4004;42.624;23.386;2023-02-12T13:22:20;95246.72;;;3.84;72.26
7918;BME280;4004;42.624;23.386;2023-02-12T13:24:56;95250.63;;;3.67;73.40
7918;BME280;4004;42.624;23.386;2023-02-12T13:27:29;95248.25;;;3.66;73.25
7918;BME280;4004;42.624;23.386;2023-02-12T13:30:03;95244.81;;;3.65;74.00
7918;BME280;4004;42.624;23.386;2023-02-12T13:32:34;95247.63;;;3.50;74.10
7918;BME280;4004;42.624;23.386;2023-02-12T13:35:04;95248.47;;;3.45;75.02
7918;BME280;4004;42.624;23.386;2023-02-12T13:37:37;95244.13;;;3.55;74.41
7918;BME280;4004;42.624;23.386;2023-02-12T13:40:13;95247.44;;;3.41;74.98
7918;BME280;4004;42.624;23.386;2023-02-12T13:42:48;95247.19;;;3.43;75.28
7918;BME280;4004;42.624;23.386;2023-02-12T13:45:39;95249.75;;;3.24;76.68
7918;BME280;4004;42.624;23.386;2023-02-12T13:48:27;95251.34;;;3.25;77.28
7918;BME280;4004;42.624;23.386;2023-02-12T13:51:01;95259.66;;;3.42;76.79
7918;BME280;4004;42.624;23.386;2023-02-12T13:53:40;95255.69;;;3.40;77.98
7918;BME280;4004;42.624;23.386;2023-02-12T13:56:25;95257.31;;;3.36;76.98